createdAt,value
2019-05-25T00:00:12.650Z,99762.33
2019-05-25T00:02:42.390Z,99762.50
2019-05-25T00:05:12.383Z,99753.04
2019-05-25T00:07:43.526Z,99751.53
2019-05-25T00:10:15.775Z,99750.83
2019-05-25T00:12:46.289Z,99744.92
2019-05-25T00:15:19.391Z,99746.55
2019-05-25T00:17:50.354Z,99749.40
2019-05-25T00:20:22.781Z,99749.40
2019-05-25T00:22:54.367Z,99746.81
2019-05-25T00:25:27.834Z,99746.11
2019-05-25T00:27:59.685Z,99742.70
2019-05-25T00:30:31.556Z,99740.00
2019-05-25T00:33:01.033Z,99746.56
2019-05-25T00:35:30.551Z,99740.33
2019-05-25T00:38:00.121Z,99736.78
2019-05-25T00:40:29.613Z,99734.95
2019-05-25T00:42:59.062Z,99733.79
2019-05-25T00:45:28.538Z,99739.88
2019-05-25T00:47:58.024Z,99734.70
2019-05-25T00:50:27.596Z,99736.78
2019-05-25T00:52:57.509Z,99736.78
2019-05-25T00:55:27.014Z,99737.34
2019-05-25T00:57:56.798Z,99739.19
2019-05-25T01:00:26.260Z,99739.19
2019-05-25T01:02:55.762Z,99743.93
2019-05-25T01:05:25.933Z,99740.30
2019-05-25T01:07:56.220Z,99740.30
2019-05-25T01:10:26.260Z,99739.46
2019-05-25T01:12:56.123Z,99748.96
2019-05-25T01:15:25.838Z,99748.96
2019-05-25T01:17:55.476Z,99752.17
2019-05-25T01:20:26.355Z,99751.54
2019-05-25T01:22:56.171Z,99757.44
2019-05-25T01:25:25.957Z,99760.84
2019-05-25T01:27:55.473Z,99759.32
2019-05-25T01:30:25.094Z,99749.37
2019-05-25T01:32:54.930Z,99754.95
2019-05-25T01:35:24.856Z,99754.94
2019-05-25T01:37:54.701Z,99754.76
2019-05-25T01:40:24.352Z,99756.79
2019-05-25T01:42:53.995Z,99751.69
2019-05-25T01:45:23.800Z,99758.27
2019-05-25T01:47:53.770Z,99750.00
2019-05-25T01:50:23.305Z,99757.89
2019-05-25T01:52:52.954Z,99756.52
2019-05-25T01:55:22.598Z,99755.02
2019-05-25T01:57:52.509Z,99754.50
2019-05-25T02:00:22.319Z,99753.46
2019-05-25T02:02:51.881Z,99757.48
2019-05-25T02:05:21.347Z,99759.49
2019-05-25T02:07:50.827Z,99765.23
2019-05-25T02:10:20.294Z,99768.73
2019-05-25T02:12:49.790Z,99767.02
2019-05-25T02:15:19.520Z,99766.84
2019-05-25T02:17:49.276Z,99768.02
2019-05-25T02:20:19.272Z,99770.39
2019-05-25T02:22:48.915Z,99765.37
2019-05-25T02:25:19.171Z,99769.06
2019-05-25T02:27:49.021Z,99765.89
2019-05-25T02:30:18.812Z,99769.92
2019-05-25T02:32:48.872Z,99766.41
2019-05-25T02:35:27.147Z,99767.63
2019-05-25T02:37:57.345Z,99751.30
2019-05-25T02:40:26.797Z,99764.80
2019-05-25T02:42:56.457Z,99766.02
2019-05-25T02:45:25.967Z,99758.92
2019-05-25T02:47:55.443Z,99758.92
2019-05-25T02:50:24.914Z,99761.67
2019-05-25T02:52:54.686Z,99761.67
2019-05-25T02:55:33.832Z,99768.77
2019-05-25T02:57:55.606Z,99767.06
2019-05-25T03:00:34.662Z,99763.20
2019-05-25T03:03:04.377Z,99763.20
2019-05-25T03:05:33.834Z,99764.72
2019-05-25T03:08:03.462Z,99777.36
2019-05-25T03:10:33.405Z,99777.36
2019-05-25T03:13:03.414Z,99785.11
2019-05-25T03:15:32.970Z,99785.11
2019-05-25T03:18:02.459Z,99783.43
2019-05-25T03:20:31.927Z,99790.33
2019-05-25T03:23:01.974Z,99789.98
2019-05-25T03:25:31.579Z,99785.77
2019-05-25T03:28:01.115Z,99794.38
2019-05-25T03:30:35.950Z,99797.07
2019-05-25T03:33:05.589Z,99799.24
2019-05-25T03:35:35.074Z,99806.84
2019-05-25T03:38:04.646Z,99807.31
2019-05-25T03:40:34.165Z,99805.56
2019-05-25T03:43:03.648Z,99804.56
2019-05-25T03:45:33.894Z,99809.75
2019-05-25T03:48:03.355Z,99811.94
2019-05-25T03:50:32.805Z,99805.71
2019-05-25T03:53:02.449Z,99810.59
2019-05-25T03:55:32.661Z,99814.31
2019-05-25T03:58:02.130Z,99818.86
2019-05-25T04:00:33.970Z,99817.53
2019-05-25T04:03:03.992Z,99823.58
2019-05-25T04:05:33.457Z,99820.41
2019-05-25T04:08:02.922Z,99816.75
2019-05-25T04:10:32.379Z,99817.62
2019-05-25T04:13:01.933Z,99819.65
2019-05-25T04:15:31.811Z,99822.52
2019-05-25T04:18:01.586Z,99822.52
2019-05-25T04:20:31.063Z,99820.00
2019-05-25T04:23:00.574Z,99828.59
2019-05-25T04:25:30.086Z,99833.14
2019-05-25T04:27:59.630Z,99837.52
2019-05-25T04:30:29.173Z,99838.03
2019-05-25T04:32:58.598Z,99835.34
2019-05-25T04:35:28.055Z,99840.58
2019-05-25T04:37:57.551Z,99842.25
2019-05-25T04:40:27.079Z,99838.22
2019-05-25T04:42:56.803Z,99839.88
2019-05-25T04:45:26.261Z,99845.41
2019-05-25T04:47:55.783Z,99840.47
2019-05-25T04:50:25.497Z,99846.91
2019-05-25T04:52:54.971Z,99841.45
2019-05-25T04:55:24.449Z,99847.87
2019-05-25T04:57:54.027Z,99849.04
2019-05-25T05:00:23.521Z,99841.95
2019-05-25T05:02:53.015Z,99851.13
2019-05-25T05:05:22.750Z,99857.45
2019-05-25T05:07:52.686Z,99854.09
2019-05-25T05:10:22.160Z,99853.78
2019-05-25T05:12:51.609Z,99856.75
2019-05-25T05:15:21.123Z,99856.75
2019-05-25T05:17:50.619Z,99866.30
2019-05-25T05:20:20.480Z,99862.19
2019-05-25T05:22:50.009Z,99863.91
2019-05-25T05:25:19.818Z,99859.89
2019-05-25T05:27:50.301Z,99862.47
2019-05-25T05:30:31.538Z,99863.87
2019-05-25T05:33:01.086Z,99863.00
2019-05-25T05:35:31.127Z,99852.35
2019-05-25T05:38:23.396Z,99862.66
2019-05-25T05:40:53.837Z,99864.05
2019-05-25T05:43:24.760Z,99859.14
2019-05-25T05:45:54.689Z,99858.94
2019-05-25T05:48:25.887Z,99865.15
2019-05-25T05:50:58.523Z,99863.08
2019-05-25T05:53:28.278Z,99860.83
2019-05-25T05:55:57.757Z,99867.16
2019-05-25T05:58:27.235Z,99863.66
2019-05-25T06:00:56.857Z,99860.44
2019-05-25T06:03:26.336Z,99860.73
2019-05-25T06:05:55.867Z,99862.36
2019-05-25T06:08:25.330Z,99869.16
2019-05-25T06:10:54.817Z,99868.32
2019-05-25T06:13:24.450Z,99864.21
2019-05-25T06:15:55.991Z,99870.50
2019-05-25T06:18:25.145Z,99875.27
2019-05-25T06:20:54.617Z,99871.77
2019-05-25T06:23:24.086Z,99873.21
2019-05-25T06:25:53.576Z,99873.88
2019-05-25T06:28:23.022Z,99872.40
2019-05-25T06:30:53.305Z,99875.22
2019-05-25T06:33:22.920Z,99873.05
2019-05-25T06:35:52.786Z,99873.98
2019-05-25T06:38:22.242Z,99862.05
2019-05-25T06:40:51.743Z,99859.08
2019-05-25T06:43:21.254Z,99867.30
2019-05-25T06:45:50.743Z,99861.27
2019-05-25T06:48:20.190Z,99865.39
2019-05-25T06:50:49.689Z,99870.61
2019-05-25T06:53:19.256Z,99866.95
2019-05-25T06:55:49.061Z,99872.67
2019-05-25T06:58:19.083Z,99878.15
2019-05-25T07:00:51.818Z,99885.89
2019-05-25T07:03:21.616Z,99890.01
2019-05-25T07:05:51.333Z,99891.14
2019-05-25T07:08:20.777Z,99889.36
2019-05-25T07:10:50.680Z,99893.75
2019-05-25T07:13:20.124Z,99896.38
2019-05-25T07:15:49.607Z,99900.98
2019-05-25T07:18:19.415Z,99897.23
2019-05-25T07:20:48.886Z,99906.19
2019-05-25T07:23:18.359Z,99909.37
2019-05-25T07:25:47.822Z,99902.03
2019-05-25T07:28:17.276Z,99901.48
2019-05-25T07:30:47.311Z,99916.57
2019-05-25T07:33:16.889Z,99912.05
2019-05-25T07:35:46.736Z,99917.45
2019-05-25T07:38:16.202Z,99910.80
2019-05-25T07:40:45.973Z,99916.69
2019-05-25T07:43:15.423Z,99910.70
2019-05-25T07:45:44.896Z,99919.02
2019-05-25T07:48:14.629Z,99922.91
2019-05-25T07:50:44.076Z,99922.61
2019-05-25T07:53:13.538Z,99918.86
2019-05-25T07:55:43.246Z,99915.38
2019-05-25T07:58:17.208Z,99916.73
2019-05-25T08:00:43.981Z,99914.00
2019-05-25T08:03:13.818Z,99920.83
2019-05-25T08:05:43.295Z,99921.91
2019-05-25T08:08:12.755Z,99933.78
2019-05-25T08:10:42.532Z,99932.19
2019-05-25T08:13:11.990Z,99920.67
2019-05-25T08:15:41.553Z,99922.19
2019-05-25T08:18:11.759Z,99925.92
2019-05-25T08:20:41.375Z,99921.97
2019-05-25T08:23:10.838Z,99925.95
2019-05-25T08:25:40.285Z,99932.86
2019-05-25T08:28:09.806Z,99932.57
2019-05-25T08:30:39.670Z,99927.27
2019-05-25T08:33:09.357Z,99919.48
2019-05-25T08:35:38.895Z,99921.55
2019-05-25T08:38:08.357Z,99919.22
2019-05-25T08:40:37.795Z,99916.98
2019-05-25T08:43:07.277Z,99920.95
2019-05-25T08:45:37.068Z,99930.38
2019-05-25T08:48:06.778Z,99939.05
2019-05-25T08:50:38.698Z,99936.44
2019-05-25T08:53:07.879Z,99940.97
2019-05-25T08:55:37.723Z,99938.20
2019-05-25T08:58:07.256Z,99937.58
2019-05-25T09:00:36.718Z,99935.45
2019-05-25T09:03:06.206Z,99943.54
2019-05-25T09:05:35.656Z,99946.86
2019-05-25T09:08:05.118Z,99948.02
2019-05-25T09:10:34.815Z,99951.51
2019-05-25T09:13:04.280Z,99944.91
2019-05-25T09:15:34.096Z,99950.64
2019-05-25T09:18:03.542Z,99951.73
2019-05-25T09:20:32.985Z,99954.52
2019-05-25T09:23:02.476Z,99952.34
2019-05-25T09:25:32.173Z,99953.80
2019-05-25T09:28:01.737Z,99946.41
2019-05-25T09:30:31.213Z,99947.13
2019-05-25T09:33:01.271Z,99939.23
2019-05-25T09:35:30.798Z,99949.86
2019-05-25T09:38:00.373Z,99951.91
2019-05-25T09:40:29.797Z,99951.24
2019-05-25T09:42:59.282Z,99945.22
2019-05-25T09:45:28.734Z,99942.60
2019-05-25T09:47:58.594Z,99947.75
2019-05-25T09:50:28.405Z,99948.88
2019-05-25T09:52:57.890Z,99944.10
2019-05-25T09:55:27.359Z,99946.19
2019-05-25T09:57:56.833Z,99940.89
2019-05-25T10:00:26.697Z,99940.25
2019-05-25T10:02:56.625Z,99949.86
2019-05-25T10:05:26.531Z,99948.13
2019-05-25T10:07:56.153Z,99951.66
2019-05-25T10:10:25.670Z,99951.59
2019-05-25T10:12:55.148Z,99944.86
2019-05-25T10:15:28.301Z,99944.83
2019-05-25T10:17:56.425Z,99939.13
2019-05-25T10:20:26.182Z,99932.61
2019-05-25T10:22:55.665Z,99929.23
2019-05-25T10:25:25.398Z,99933.18
2019-05-25T10:27:54.866Z,99929.80
2019-05-25T10:30:24.521Z,99937.05
2019-05-25T10:32:54.658Z,99938.39
2019-05-25T10:35:24.113Z,99932.17
2019-05-25T10:37:53.587Z,99926.42
2019-05-25T10:40:23.172Z,99939.06
2019-05-25T10:42:52.652Z,99938.61
2019-05-25T10:45:22.292Z,99937.42
2019-05-25T10:47:52.094Z,99927.49
2019-05-25T10:50:21.704Z,99934.33
2019-05-25T10:52:51.197Z,99930.86
2019-05-25T10:55:21.523Z,99932.01
2019-05-25T10:57:51.335Z,99930.30
2019-05-25T11:00:21.876Z,99927.00
2019-05-25T11:02:51.806Z,99928.85
2019-05-25T11:05:21.344Z,99924.33
2019-05-25T11:07:50.794Z,99920.80
2019-05-25T11:10:20.898Z,99916.00
2019-05-25T11:12:51.068Z,99916.38
2019-05-25T11:15:20.929Z,99918.47
2019-05-25T11:17:50.838Z,99914.35
2019-05-25T11:20:20.827Z,99906.75
2019-05-25T11:22:50.288Z,99906.48
2019-05-25T11:25:19.763Z,99902.55
2019-05-25T11:27:49.213Z,99907.34
2019-05-25T11:30:19.883Z,99903.16
2019-05-25T11:32:49.876Z,99907.42
2019-05-25T11:35:19.421Z,99908.77
2019-05-25T11:37:48.876Z,99909.84
2019-05-25T11:40:19.981Z,99908.73
2019-05-25T11:42:49.516Z,99903.18
2019-05-25T11:45:19.385Z,99898.03
2019-05-25T11:47:50.582Z,99905.09
2019-05-25T11:50:20.115Z,99899.61
2019-05-25T11:52:49.583Z,99904.75
2019-05-25T11:55:19.312Z,99910.53
2019-05-25T11:57:48.902Z,99905.89
2019-05-25T12:00:25.265Z,99902.02
2019-05-25T12:02:53.176Z,99909.61
2019-05-25T12:05:22.787Z,99904.36
2019-05-25T12:07:52.562Z,99902.56
2019-05-25T12:10:22.168Z,99903.97
2019-05-25T12:12:51.797Z,99903.11
2019-05-25T12:15:21.951Z,99897.83
2019-05-25T12:17:51.991Z,99908.14
2019-05-25T12:20:22.359Z,99900.86
2019-05-25T12:22:52.388Z,99906.31
2019-05-25T12:25:22.011Z,99904.61
2019-05-25T12:27:51.774Z,99916.63
2019-05-25T12:30:21.815Z,99912.09
2019-05-25T12:32:51.330Z,99911.45
2019-05-25T12:35:21.035Z,99908.51
2019-05-25T12:37:50.617Z,99916.14
2019-05-25T12:40:20.635Z,99917.55
2019-05-25T12:42:50.875Z,99905.66
2019-05-25T12:45:20.785Z,99902.50
2019-05-25T12:47:50.236Z,99904.63
2019-05-25T12:50:20.021Z,99904.41
2019-05-25T12:52:49.496Z,99897.55
2019-05-25T12:55:19.112Z,99890.20
2019-05-25T12:57:51.403Z,99882.03
2019-05-25T13:00:20.187Z,99883.81
2019-05-25T13:02:49.700Z,99883.80
2019-05-25T13:05:32.947Z,99885.96
2019-05-25T13:07:50.670Z,99895.27
2019-05-25T13:10:20.522Z,99891.31
2019-05-25T13:12:50.082Z,99888.94
2019-05-25T13:15:19.553Z,99890.97
2019-05-25T13:17:49.020Z,99900.44
2019-05-25T13:20:18.643Z,99886.73
2019-05-25T13:22:48.095Z,99882.73
2019-05-25T13:25:17.837Z,99881.42
2019-05-25T13:27:47.295Z,99868.86
2019-05-25T13:30:17.413Z,99867.17
2019-05-25T13:32:46.839Z,99871.91
2019-05-25T13:35:16.463Z,99866.83
2019-05-25T13:37:45.928Z,99863.02
2019-05-25T13:40:15.752Z,99870.50
2019-05-25T13:42:45.860Z,99872.16
2019-05-25T13:45:15.797Z,99870.25
2019-05-25T13:47:45.611Z,99865.53
2019-05-25T13:50:15.467Z,99867.48
2019-05-25T13:52:44.942Z,99876.89
2019-05-25T13:55:14.861Z,99875.23
2019-05-25T13:57:44.326Z,99879.37
2019-05-25T14:00:16.440Z,99876.07
2019-05-25T14:02:45.937Z,99876.64
2019-05-25T14:05:15.649Z,99883.55
2019-05-25T14:07:45.114Z,99882.94
2019-05-25T14:10:14.898Z,99881.79
2019-05-25T14:12:44.680Z,99889.34
2019-05-25T14:15:14.506Z,99890.02
2019-05-25T14:17:43.989Z,99887.75
2019-05-25T14:20:13.787Z,99882.64
2019-05-25T14:22:46.891Z,99885.13
2019-05-25T14:25:15.283Z,99885.92
2019-05-25T14:27:44.955Z,99890.11
2019-05-25T14:30:14.802Z,99886.34
2019-05-25T14:32:44.298Z,99884.91
2019-05-25T14:35:14.523Z,99888.82
2019-05-25T14:37:44.018Z,99880.45
2019-05-25T14:40:14.054Z,99883.05
2019-05-25T14:42:43.548Z,99885.08
2019-05-25T14:45:13.640Z,99880.77
2019-05-25T14:47:43.111Z,99880.26
2019-05-25T14:50:12.855Z,99880.58
2019-05-25T14:52:43.508Z,99880.46
2019-05-25T14:55:14.056Z,99887.41
2019-05-25T14:57:43.522Z,99879.58
2019-05-25T15:00:14.754Z,99880.83
2019-05-25T15:02:44.611Z,99880.03
2019-05-25T15:05:16.519Z,99875.88
2019-05-25T15:07:46.070Z,99876.59
2019-05-25T15:10:15.697Z,99876.72
2019-05-25T15:12:45.170Z,99879.28
2019-05-25T15:15:14.985Z,99874.86
2019-05-25T15:17:44.575Z,99871.42
2019-05-25T15:20:15.700Z,99866.36
2019-05-25T15:22:46.999Z,99871.53
2019-05-25T15:25:16.618Z,99867.95
2019-05-25T15:27:46.095Z,99866.00
2019-05-25T15:30:16.297Z,99866.50
2019-05-25T15:32:45.818Z,99864.27
2019-05-25T15:35:15.357Z,99865.45
2019-05-25T15:37:45.049Z,99868.00
2019-05-25T15:40:15.007Z,99865.35
2019-05-25T15:42:44.469Z,99866.90
2019-05-25T15:45:14.110Z,99857.72
2019-05-25T15:47:43.602Z,99856.09
2019-05-25T15:50:15.168Z,99860.55
2019-05-25T15:52:44.642Z,99860.91
2019-05-25T15:55:14.379Z,99863.40
2019-05-25T15:57:43.865Z,99864.93
2019-05-25T16:00:20.226Z,99867.84
2019-05-25T16:02:49.824Z,99860.06
2019-05-25T16:05:19.490Z,99864.78
2019-05-25T16:07:50.969Z,99856.59
2019-05-25T16:10:20.862Z,99867.00
2019-05-25T16:12:50.341Z,99863.67
2019-05-25T16:15:27.619Z,99866.89
2019-05-25T16:17:57.221Z,99864.91
2019-05-25T16:20:26.704Z,99871.72
2019-05-25T16:22:56.481Z,99868.78
2019-05-25T16:25:26.486Z,99861.57
2019-05-25T16:27:56.061Z,99863.02
2019-05-25T16:30:26.315Z,99858.33
2019-05-25T16:33:13.716Z,99861.81
2019-05-25T16:35:27.152Z,99855.73
2019-05-25T16:37:57.137Z,99869.44
2019-05-25T16:40:26.703Z,99860.75
2019-05-25T16:42:56.532Z,99869.89
2019-05-25T16:45:26.349Z,99868.36
2019-05-25T16:47:55.941Z,99869.11
2019-05-25T16:50:25.454Z,99864.41
2019-05-25T16:52:55.110Z,99867.91
2019-05-25T16:55:24.618Z,99867.98
2019-05-25T16:57:54.159Z,99872.78
2019-05-25T17:00:32.391Z,99869.35
2019-05-25T17:03:02.224Z,99878.12
2019-05-25T17:05:32.139Z,99880.70
2019-05-25T17:08:01.731Z,99873.83
2019-05-25T17:10:31.188Z,99879.09
2019-05-25T17:13:00.658Z,99885.17
2019-05-25T17:15:30.147Z,99887.16
2019-05-25T17:17:59.635Z,99889.81
2019-05-25T17:20:29.096Z,99886.25
2019-05-25T17:22:58.557Z,99887.61
2019-05-25T17:25:28.407Z,99883.95
2019-05-25T17:27:57.867Z,99888.99
2019-05-25T17:30:42.763Z,99889.64
2019-05-25T17:33:12.253Z,99885.55
2019-05-25T17:35:42.065Z,99889.69
2019-05-25T17:38:11.596Z,99887.89
2019-05-25T17:40:41.148Z,99891.48
2019-05-25T17:43:10.604Z,99886.27
2019-05-25T17:45:40.093Z,99891.38
2019-05-25T17:48:09.882Z,99899.04
2019-05-25T17:50:39.381Z,99902.00
2019-05-25T17:53:09.034Z,99905.64
2019-05-25T17:55:38.614Z,99903.34
2019-05-25T17:58:08.064Z,99894.98
2019-05-25T18:00:40.012Z,99894.24
2019-05-25T18:03:09.596Z,99895.51
2019-05-25T18:05:39.097Z,99900.84
2019-05-25T18:08:09.245Z,99903.64
2019-05-25T18:10:52.230Z,99910.72
2019-05-25T18:13:09.892Z,99905.77
2019-05-25T18:15:39.516Z,99904.27
2019-05-25T18:18:08.983Z,99909.77
2019-05-25T18:20:38.466Z,99909.52
2019-05-25T18:23:07.913Z,99917.09
2019-05-25T18:25:37.377Z,99914.23
2019-05-25T18:28:07.008Z,99913.78
2019-05-25T18:30:36.656Z,99912.36
2019-05-25T18:33:06.675Z,99913.22
2019-05-25T18:35:36.159Z,99922.91
2019-05-25T18:38:05.603Z,99932.63
2019-05-25T18:40:35.075Z,99933.23
2019-05-25T18:43:04.630Z,99929.38
2019-05-25T18:45:34.092Z,99930.08
2019-05-25T18:48:04.428Z,99927.52
2019-05-25T18:50:33.896Z,99928.82
2019-05-25T18:53:03.376Z,99932.06
2019-05-25T18:55:33.041Z,99937.00
2019-05-25T18:58:02.788Z,99929.05
2019-05-25T19:00:32.612Z,99934.25
2019-05-25T19:03:02.071Z,99934.09
2019-05-25T19:05:31.809Z,99932.87
2019-05-25T19:08:01.274Z,99937.24
2019-05-25T19:10:30.741Z,99938.94
2019-05-25T19:13:00.202Z,99936.31
2019-05-25T19:15:29.664Z,99946.91
2019-05-25T19:17:59.485Z,99942.64
2019-05-25T19:20:29.290Z,99951.56
2019-05-25T19:22:58.729Z,99947.59
2019-05-25T19:25:28.210Z,99957.63
2019-05-25T19:27:57.656Z,99950.76
2019-05-25T19:30:27.651Z,99958.76
2019-05-25T19:32:58.751Z,99958.60
2019-05-25T19:35:28.380Z,99966.58
2019-05-25T19:37:57.833Z,99962.34
2019-05-25T19:40:27.728Z,99965.91
2019-05-25T19:42:57.144Z,99968.11
2019-05-25T19:45:26.610Z,99967.45
2019-05-25T19:47:56.092Z,99967.59
2019-05-25T19:50:25.647Z,99973.19
2019-05-25T19:52:55.170Z,99975.31
2019-05-25T19:55:24.670Z,99975.67
2019-05-25T19:57:54.137Z,99982.80
2019-05-25T20:00:23.953Z,99984.23
2019-05-25T20:02:54.362Z,99990.18
2019-05-25T20:05:23.847Z,99991.53
2019-05-25T20:07:53.500Z,99993.06
2019-05-25T20:10:23.056Z,99994.30
2019-05-25T20:12:52.850Z,99998.71
2019-05-25T20:15:22.332Z,99992.82
2019-05-25T20:17:51.813Z,100000.44
2019-05-25T20:20:21.439Z,100006.76
2019-05-25T20:22:51.252Z,100004.24
2019-05-25T20:25:20.743Z,100007.67
2019-05-25T20:27:50.756Z,100016.64
2019-05-25T20:30:23.746Z,100020.19
2019-05-25T20:32:53.728Z,100030.53
2019-05-25T20:35:32.280Z,100034.08
2019-05-25T20:37:54.485Z,100038.81
2019-05-25T20:40:23.957Z,100039.69
2019-05-25T20:42:53.440Z,100042.72
2019-05-25T20:45:22.894Z,100046.44
2019-05-25T20:47:52.393Z,100047.27
2019-05-25T20:50:21.904Z,100048.09
2019-05-25T20:52:51.756Z,100056.85
2019-05-25T20:55:21.215Z,100063.94
2019-05-25T20:57:50.707Z,100061.56
2019-05-25T21:00:24.286Z,100055.62
2019-05-25T21:03:05.328Z,100055.62
2019-05-25T21:05:24.926Z,100058.48
2019-05-25T21:07:54.423Z,100055.76
2019-05-25T21:10:23.888Z,100064.88
2019-05-25T21:12:53.369Z,100063.52
2019-05-25T21:15:22.857Z,100073.09
2019-05-25T21:17:52.340Z,100069.73
2019-05-25T21:20:21.871Z,100080.52
2019-05-25T21:22:51.356Z,100082.73
2019-05-25T21:25:20.818Z,100090.16
2019-05-25T21:27:53.407Z,100086.47
2019-05-25T21:30:24.497Z,100089.48
2019-05-25T21:32:55.489Z,100096.23
2019-05-25T21:35:24.951Z,100101.30
2019-05-25T21:37:54.451Z,100099.60
2019-05-25T21:40:23.955Z,100104.66
2019-05-25T21:42:53.762Z,100100.12
2019-05-25T21:45:23.220Z,100106.69
2019-05-25T21:47:56.032Z,100112.23
2019-05-25T21:50:24.161Z,100115.09
2019-05-25T21:52:53.663Z,100129.07
2019-05-25T21:55:23.456Z,100119.59
2019-05-25T21:57:52.947Z,100117.06
2019-05-25T22:00:24.672Z,100114.00
2019-05-25T22:02:54.416Z,100119.88
2019-05-25T22:05:23.862Z,100131.42
2019-05-25T22:07:53.352Z,100131.42
2019-05-25T22:10:22.814Z,100135.41
2019-05-25T22:12:52.287Z,100137.79
2019-05-25T22:15:22.072Z,100135.31
2019-05-25T22:17:51.813Z,100138.54
2019-05-25T22:20:21.382Z,100131.16
2019-05-25T22:22:50.866Z,100131.51
2019-05-25T22:25:20.326Z,100132.52
2019-05-25T22:27:49.808Z,100137.34
2019-05-25T22:30:19.642Z,100136.50
2019-05-25T22:32:49.191Z,100133.52
2019-05-25T22:35:19.084Z,100138.25
2019-05-25T22:37:48.615Z,100131.51
2019-05-25T22:40:18.255Z,100135.21
2019-05-25T22:42:47.725Z,100137.91
2019-05-25T22:45:17.756Z,100137.94
2019-05-25T22:47:47.616Z,100137.59
2019-05-25T22:50:17.063Z,100124.27
2019-05-25T22:52:46.536Z,100124.27
2019-05-25T22:55:15.997Z,100128.15
2019-05-25T22:57:46.945Z,100134.17
2019-05-25T23:00:17.213Z,100131.77
2019-05-25T23:02:47.494Z,100142.08
2019-05-25T23:05:17.053Z,100142.08
2019-05-25T23:07:46.611Z,100137.38
2019-05-25T23:10:16.390Z,100139.30
2019-05-25T23:12:45.840Z,100138.13
2019-05-25T23:15:15.762Z,100139.60
2019-05-25T23:17:45.235Z,100139.60
2019-05-25T23:20:14.764Z,100134.87
2019-05-25T23:22:44.248Z,100132.02
2019-05-25T23:25:13.746Z,100141.08
2019-05-25T23:27:43.563Z,100142.23
2019-05-25T23:30:14.423Z,100140.05
2019-05-25T23:32:44.048Z,100144.88
2019-05-25T23:35:13.623Z,100143.42
2019-05-25T23:37:43.450Z,100141.16
2019-05-25T23:40:13.257Z,100138.28
2019-05-25T23:42:42.726Z,100146.36
2019-05-25T23:45:14.033Z,100147.05
2019-05-25T23:47:43.511Z,100141.31
2019-05-25T23:50:13.373Z,100136.42
2019-05-25T23:52:42.850Z,100142.31
2019-05-25T23:55:12.489Z,100136.70
2019-05-25T23:57:42.333Z,100129.05
